Hardaway, Alabama
Current Conditions -  °F | °C
As of 5:53 AM on Sunday 23 Nov 2014 (Local Time) from KTOI Reporting Station
Haze Haze  
Wind Chill: 62°   Ceiling: 600
Heat Index: 62°   Visibility: 4mi
Dew Point: 60°   Wind: 8mph
Humidity: 93%   Direction: 110°ESE
Pressure: 29.89"   Gusts: NA
Location:  32.29°N, 85.85°W
Report Text: KTOI 231153Z AUTO 11007KT 4SM BR OVC006 17/16 A2989 RMK AO2 RAE14 SLP119 P0000 60010 70022 T01670156 10167 20144 58010
Loading
Personal Weather Stations






























Interactive Weather Map New forecast layout! Learn more

10-Day Weather Forecast

Advertisements
Track Severe Weather on mobile